Map

Track Data

SID SEASON NUMBER BASIN SUBBASIN NAME ISO_TIME NATURE LAT LON WMO_WIND WMO_PRES WMO_AGENCY TRACK_TYPE DIST2LAND LANDFALL IFLAG USA_AGENCY USA_ATCF_ID USA_LAT USA_LON USA_RECORD USA_STATUS USA_WIND USA_PRES USA_SSHS USA_R34_NE USA_R34_SE USA_R34_SW USA_R34_NW USA_R50_NE USA_R50_SE USA_R50_SW USA_R50_NW USA_R64_NE USA_R64_SE USA_R64_SW USA_R64_NW USA_POCI USA_ROCI USA_RMW USA_EYE TOKYO_LAT TOKYO_LON TOKYO_GRADE TOKYO_WIND TOKYO_PRES TOKYO_R50_DIR TOKYO_R50_LONG TOKYO_R50_SHORT TOKYO_R30_DIR TOKYO_R30_LONG TOKYO_R30_SHORT TOKYO_LAND CMA_LAT CMA_LON CMA_CAT CMA_WIND CMA_PRES HKO_LAT HKO_LON HKO_CAT HKO_WIND HKO_PRES NEWDELHI_LAT NEWDELHI_LON NEWDELHI_GRADE NEWDELHI_WIND NEWDELHI_PRES NEWDELHI_CI NEWDELHI_DP NEWDELHI_POCI REUNION_LAT REUNION_LON REUNION_TYPE REUNION_WIND REUNION_PRES REUNION_TNUM REUNION_CI REUNION_RMW REUNION_R34_NE REUNION_R34_SE REUNION_R34_SW REUNION_R34_NW REUNION_R50_NE REUNION_R50_SE REUNION_R50_SW REUNION_R50_NW REUNION_R64_NE REUNION_R64_SE REUNION_R64_SW REUNION_R64_NW BOM_LAT BOM_LON BOM_TYPE BOM_WIND BOM_PRES BOM_TNUM BOM_CI BOM_RMW BOM_R34_NE BOM_R34_SE BOM_R34_SW BOM_R34_NW BOM_R50_NE BOM_R50_SE BOM_R50_SW BOM_R50_NW BOM_R64_NE BOM_R64_SE BOM_R64_SW BOM_R64_NW BOM_ROCI BOM_POCI BOM_EYE BOM_POS_METHOD BOM_PRES_METHOD NADI_LAT NADI_LON NADI_CAT NADI_WIND NADI_PRES WELLINGTON_LAT WELLINGTON_LON WELLINGTON_WIND WELLINGTON_PRES DS824_LAT DS824_LON DS824_STAGE DS824_WIND DS824_PRES TD9636_LAT TD9636_LON TD9636_STAGE TD9636_WIND TD9636_PRES TD9635_LAT TD9635_LON TD9635_WIND TD9635_PRES TD9635_ROCI NEUMANN_LAT NEUMANN_LON NEUMANN_CLASS NEUMANN_WIND NEUMANN_PRES MLC_LAT MLC_LON MLC_CLASS MLC_WIND MLC_PRES USA_GUST BOM_GUST BOM_GUST_PER REUNION_GUST REUNION_GUST_PER USA_SEAHGT USA_SEARAD_NE USA_SEARAD_SE USA_SEARAD_SW USA_SEARAD_NW STORM_SPEED STORM_DIR
1969265N34288 1969 86 NA NA NOT_NAMED 1969-09-21 12:00:00 ET 34.0000 -72.0000 40 hurdat_atl main 376 376 O_____________ hurdat_atl AL211969 34.0000 -72.0000 EX 40 -4 8 83
1969265N34288 1969 86 NA NA NOT_NAMED 1969-09-21 15:00:00 ET 34.0503 -71.5051 main 410 410 P_____________ AL211969 34.0503 -71.5051 EX 42 -4 8 83
1969265N34288 1969 86 NA NA NOT_NAMED 1969-09-21 18:00:00 ET 34.1000 -71.0000 45 hurdat_atl main 450 450 O_____________ hurdat_atl AL211969 34.1000 -71.0000 EX 45 -4 8 83
1969265N34288 1969 86 NA NA NOT_NAMED 1969-09-21 21:00:00 ET 34.1500 -70.4850 main 492 488 P_____________ AL211969 34.1500 -70.4850 EX 45 -4 8 83
1969265N34288 1969 86 NA NA NOT_NAMED 1969-09-22 00:00:00 ET 34.2000 -70.0000 45 hurdat_atl main 530 530 O_____________ hurdat_atl AL211969 34.2000 -70.0000 EX 45 -4 8 83
1969265N34288 1969 86 NA NA NOT_NAMED 1969-09-22 03:00:00 ET 34.2423 -69.5773 main 564 564 P_____________ AL211969 34.2423 -69.5773 EX 45 -4 7 81
1969265N34288 1969 86 NA NA NOT_NAMED 1969-09-22 06:00:00 ET 34.3000 -69.2000 45 hurdat_atl main 596 596 O_____________ hurdat_atl AL211969 34.3000 -69.2000 EX 45 -4 6 76
1969265N34288 1969 86 NA NA NOT_NAMED 1969-09-22 09:00:00 ET 34.3923 -68.8500 main 627 627 P_____________ AL211969 34.3923 -68.8500 EX 45 -4 6 71
1969265N34288 1969 86 NA NA NOT_NAMED 1969-09-22 12:00:00 SS 34.5000 -68.5000 45 995 hurdat_atl main 651 651 O_____________ hurdat_atl AL211969 34.5000 -68.5000 SS 45 995 -2 7 72
1969265N34288 1969 86 NA NA NOT_NAMED 1969-09-22 15:00:00 SS 34.5926 -68.0849 main 683 683 P_____________ AL211969 34.5926 -68.0849 SS 47 994 -2 7 73
1969265N34288 1969 86 NA NA NOT_NAMED 1969-09-22 18:00:00 SS 34.7000 -67.7000 50 hurdat_atl main 717 717 I_____________ hurdat_atl AL211969 34.7000 -67.7000 SS 50 994 -2 6 65
1969265N34288 1969 86 NA NA NOT_NAMED 1969-09-22 21:00:00 SS 34.8498 -67.4200 main 741 739 P_____________ AL211969 34.8498 -67.4200 SS 50 994 -2 5 54
1969265N34288 1969 86 NA NA NOT_NAMED 1969-09-23 00:00:00 SS 35.0000 -67.2000 50 994 hurdat_atl main 755 755 O_____________ hurdat_atl AL211969 35.0000 -67.2000 SS 50 994 -2 4 55
1969265N34288 1969 86 NA NA NOT_NAMED 1969-09-23 03:00:00 SS 35.1000 -66.9774 main 771 771 P_____________ AL211969 35.1000 -66.9774 SS 50 993 -2 4 59
1969265N34288 1969 86 NA NA NOT_NAMED 1969-09-23 06:00:00 SS 35.2000 -66.8000 50 hurdat_atl main 775 767 I_____________ hurdat_atl AL211969 35.2000 -66.8000 SS 50 993 -2 3 45
1969265N34288 1969 86 NA NA NOT_NAMED 1969-09-23 09:00:00 SS 35.3424 -66.6849 main 767 750 P_____________ AL211969 35.3424 -66.6849 SS 52 992 -2 3 28
1969265N34288 1969 86 NA NA NOT_NAMED 1969-09-23 12:00:00 SS 35.5000 -66.6000 55 992 hurdat_atl main 750 740 O_____________ hurdat_atl AL211969 35.5000 -66.6000 SS 55 992 -2 3 27
1969265N34288 1969 86 NA NA NOT_NAMED 1969-09-23 15:00:00 SS 35.6425 -66.4999 main 743 726 P_____________ AL211969 35.6425 -66.4999 SS 55 991 -2 3 28
1969265N34288 1969 86 NA NA NOT_NAMED 1969-09-23 18:00:00 SS 35.8000 -66.4000 55 990 hurdat_atl main 726 710 O_____________ hurdat_atl AL211969 35.8000 -66.4000 SS 55 990 -2 4 26
1969265N34288 1969 86 NA NA NOT_NAMED 1969-09-23 21:00:00 SS 35.9850 -66.2999 main 710 694 P_____________ AL211969 35.9850 -66.2999 SS 57 -2 4 22
1969265N34288 1969 86 NA NA NOT_NAMED 1969-09-24 00:00:00 SS 36.2000 -66.2000 60 hurdat_atl main 694 678 O_____________ hurdat_atl AL211969 36.2000 -66.2000 SS 60 -2 5 19
1969265N34288 1969 86 NA NA NOT_NAMED 1969-09-24 03:00:00 SS 36.4200 -66.1073 main 678 653 P_____________ AL211969 36.4200 -66.1073 SS 60 -2 5 18
1969265N34288 1969 86 NA NA NOT_NAMED 1969-09-24 06:00:00 SS 36.7000 -66.0000 60 hurdat_atl main 653 630 O_____________ hurdat_atl AL211969 36.7000 -66.0000 SS 60 -2 7 15
1969265N34288 1969 86 NA NA NOT_NAMED 1969-09-24 09:00:00 SS 37.0698 -65.8870 main 620 594 P_____________ AL211969 37.0698 -65.8870 SS 62 -2 8 17
1969265N34288 1969 86 NA NA NOT_NAMED 1969-09-24 12:00:00 TS 37.5000 -65.7000 65 hurdat_atl main 594 570 O_____________ hurdat_atl AL211969 37.5000 -65.7000 HU 65 1 10 24
1969265N34288 1969 86 NA NA NOT_NAMED 1969-09-24 15:00:00 TS 37.9425 -65.3949 main 576 560 P_____________ AL211969 37.9425 -65.3949 HU 65 1 11 32
1969265N34288 1969 86 NA NA NOT_NAMED 1969-09-24 18:00:00 TS 38.4000 -65.0000 65 hurdat_atl main 560 525 O_____________ hurdat_atl AL211969 38.4000 -65.0000 HU 65 1 11 34
1969265N34288 1969 86 NA NA NOT_NAMED 1969-09-24 21:00:00 TS 38.8417 -64.6160 main 526 477 P_____________ AL211969 38.8417 -64.6160 HU 65 1 11 38
1969265N34288 1969 86 NA NA NOT_NAMED 1969-09-25 00:00:00 TS 39.3000 -64.1000 65 987 hurdat_atl main 477 445 O_____________ hurdat_atl AL211969 39.3000 -64.1000 HU 65 987 1 13 46
1969265N34288 1969 86 NA NA NOT_NAMED 1969-09-25 03:00:00 TS 39.7694 -63.3955 main 440 419 P_____________ AL211969 39.7694 -63.3955 HU 65 1 16 51
1969265N34288 1969 86 NA NA NOT_NAMED 1969-09-25 06:00:00 TS 40.3000 -62.5000 65 hurdat_atl main 424 415 O_____________ hurdat_atl AL211969 40.3000 -62.5000 HU 65 1 19 52
1969265N34288 1969 86 NA NA NOT_NAMED 1969-09-25 09:00:00 TS 40.9275 -61.4522 main 420 394 P_____________ AL211969 40.9275 -61.4522 HU 65 1 21 52
1969265N34288 1969 86 NA NA NOT_NAMED 1969-09-25 12:00:00 TS 41.6000 -60.3000 65 hurdat_atl main 397 363 O_____________ hurdat_atl AL211969 41.6000 -60.3000 HU 65 1 22 53
1969265N34288 1969 86 NA NA NOT_NAMED 1969-09-25 15:00:00 TS 42.2572 -59.1340 main 359 349 P_____________ AL211969 42.2572 -59.1340 HU 65 1 21 53
1969265N34288 1969 86 NA NA NOT_NAMED 1969-09-25 18:00:00 TS 42.9000 -58.0000 65 hurdat_atl main 355 348 O_____________ hurdat_atl AL211969 42.9000 -58.0000 HU 65 1 20 52
1969265N34288 1969 86 NA NA NOT_NAMED 1969-09-25 21:00:00 TS 43.4981 -56.9886 main 353 301 P_____________ AL211969 43.4981 -56.9886 HU 65 1 19 50
1969265N34288 1969 86 NA NA NOT_NAMED 1969-09-26 00:00:00 TS 44.1000 -56.0000 65 hurdat_atl main 300 237 O_____________ hurdat_atl AL211969 44.1000 -56.0000 HU 65 1 19 50
1969265N34288 1969 86 NA NA NOT_NAMED 1969-09-26 03:00:00 TS 44.7180 -54.9552 main 237 135 P_____________ AL211969 44.7180 -54.9552 HU 65 1 20 50
1969265N34288 1969 86 NA NA NOT_NAMED 1969-09-26 06:00:00 TS 45.4000 -53.8000 65 hurdat_atl main 134 72 O_____________ hurdat_atl AL211969 45.4000 -53.8000 HU 65 1 22 50
1969265N34288 1969 86 NA NA NOT_NAMED 1969-09-26 09:00:00 TS 46.1289 -52.5251 main 77 75 P_____________ AL211969 46.1289 -52.5251 HU 62 0 25 50
1969265N34288 1969 86 NA NA NOT_NAMED 1969-09-26 12:00:00 ET 47.0000 -51.0000 60 hurdat_atl main 132 132 O_____________ hurdat_atl AL211969 47.0000 -51.0000 EX 60 -4 30 50
1969265N34288 1969 86 NA NA NOT_NAMED 1969-09-26 15:00:00 ET 48.0596 -49.1613 main 261 261 P_____________ AL211969 48.0596 -49.1613 EX 60 -4 35 51
1969265N34288 1969 86 NA NA NOT_NAMED 1969-09-26 18:00:00 ET 49.2000 -47.0000 60 hurdat_atl main 441 441 O_____________ hurdat_atl AL211969 49.2000 -47.0000 EX 60 -4 37 53
1969265N34288 1969 86 NA NA NOT_NAMED 1969-09-26 21:00:00 ET 50.2595 -44.6382 main 636 636 P_____________ AL211969 50.2595 -44.6382 EX 57 -4 38 57
1969265N34288 1969 86 NA NA NOT_NAMED 1969-09-27 00:00:00 ET 51.3000 -42.0000 55 hurdat_atl main 841 841 O_____________ hurdat_atl AL211969 51.3000 -42.0000 EX 55 -4 40 59
1969265N34288 1969 86 NA NA NOT_NAMED 1969-09-27 03:00:00 ET 52.3280 -39.0694 main 897 866 P_____________ AL211969 52.3280 -39.0694 EX 55 -4 42 61
1969265N34288 1969 86 NA NA NOT_NAMED 1969-09-27 06:00:00 ET 53.3000 -36.0000 55 hurdat_atl main 866 862 O_____________ hurdat_atl AL211969 53.3000 -36.0000 EX 55 -4 41 63
1969265N34288 1969 86 NA NA NOT_NAMED 1969-09-27 09:00:00 ET 54.1650 -32.9834 main 888 888 P_____________ AL211969 54.1650 -32.9834 EX 55 -4 39 64
1969265N34288 1969 86 NA NA NOT_NAMED 1969-09-27 12:00:00 ET 55.0000 -30.0000 55 hurdat_atl main 957 917 O_____________ hurdat_atl AL211969 55.0000 -30.0000 EX 55 -4 38 64
1969265N34288 1969 86 NA NA NOT_NAMED 1969-09-27 15:00:00 ET 55.8453 -26.9527 main 916 783 P_____________ AL211969 55.8453 -26.9527 EX 55 -4 38 63
1969265N34288 1969 86 NA NA NOT_NAMED 1969-09-27 18:00:00 ET 56.7000 -24.0000 55 hurdat_atl main 780 666 O_____________ hurdat_atl AL211969 56.7000 -24.0000 EX 55 -4 36 61
1969265N34288 1969 86 NA NA NOT_NAMED 1969-09-27 21:00:00 ET 57.5734 -21.1698 main 655 553 P_____________ AL211969 57.5734 -21.1698 EX 57 -4 34 60
1969265N34288 1969 86 NA NA NOT_NAMED 1969-09-28 00:00:00 ET 58.4000 -18.5000 60 hurdat_atl main 553 495 O_____________ hurdat_atl AL211969 58.4000 -18.5000 EX 60 -4 31 61
1969265N34288 1969 86 NA NA NOT_NAMED 1969-09-28 03:00:00 ET 59.1099 -15.9529 main 496 410 P_____________ AL211969 59.1099 -15.9529 EX 62 -4 29 63
1969265N34288 1969 86 NA NA NOT_NAMED 1969-09-28 06:00:00 ET 59.7000 -13.5000 65 hurdat_atl main 405 314 O_____________ hurdat_atl AL211969 59.7000 -13.5000 EX 65 -4 27 68
1969265N34288 1969 86 NA NA NOT_NAMED 1969-09-28 09:00:00 ET 60.1392 -11.0018 main 309 259 P_____________ AL211969 60.1392 -11.0018 EX 67 -4 26 72
1969265N34288 1969 86 NA NA NOT_NAMED 1969-09-28 12:00:00 ET 60.5000 -8.50000 70 hurdat_atl main 258 249 O_____________ hurdat_atl AL211969 60.5000 -8.50000 EX 70 -4 26 74
1969265N34288 1969 86 NA NA NOT_NAMED 1969-09-28 15:00:00 ET 60.8455 -5.91333 main 258 258 P_____________ AL211969 60.8455 -5.91333 EX 70 -4 26 75
1969265N34288 1969 86 NA NA NOT_NAMED 1969-09-28 18:00:00 ET 61.2000 -3.30000 70 hurdat_atl main 287 287 O_____________ hurdat_atl AL211969 61.2000 -3.30000 EX 70 -4 26 74
1969265N34288 1969 86 NA NA NOT_NAMED 1969-09-28 21:00:00 ET 61.5499 -0.657201 main 300 166 P_____________ AL211969 61.5499 -0.657201 EX 70 -4 26 72
1969265N34288 1969 86 NA NA NOT_NAMED 1969-09-29 00:00:00 ET 62.0000 2.00000 70 hurdat_atl main 160 51 O_____________ hurdat_atl AL211969 62.0000 2.00000 EX 70 -4 27 68
1969265N34288 1969 86 NA NA NOT_NAMED 1969-09-29 03:00:00 ET 62.5787 4.74447 main 58 22 P_____________ AL211969 62.5787 4.74447 EX 70 -4 28 63
1969265N34288 1969 86 NA NA NOT_NAMED 1969-09-29 06:00:00 ET 63.3000 7.50000 70 hurdat_atl main 38 0 O_____________ hurdat_atl AL211969 63.3000 7.50000 EX 70 -4 29 59
1969265N34288 1969 86 NA NA NOT_NAMED 1969-09-29 09:00:00 ET 64.0947 10.2977 main 0 0 P_____________ AL211969 64.0947 10.2977 EX 67 -4 29 55
1969265N34288 1969 86 NA NA NOT_NAMED 1969-09-29 12:00:00 ET 65.0000 13.0000 65 hurdat_atl main 0 0 O_____________ hurdat_atl AL211969 65.0000 13.0000 EX 65 -4 29 49
1969265N34288 1969 86 NA NA NOT_NAMED 1969-09-29 15:00:00 ET 65.9857 15.5131 main 0 0 P_____________ AL211969 65.9857 15.5131 EX 60 -4 28 45
1969265N34288 1969 86 NA NA NOT_NAMED 1969-09-29 18:00:00 ET 67.0000 18.0000 55 hurdat_atl main 0 O_____________ hurdat_atl AL211969 67.0000 18.0000 EX 55 -4 28 44

About IBTrACS Database

This database is a web-friendly format of International Best Track Archive for Climate Stewardship (IBTrACS), a global best track data archive curated by NOAA dating back to 1842.

Updated: 2022-11-16